sensor_id;sensor_type;location;lat;lon;timestamp;P1;durP1;ratioP1;P2;durP2;ratioP2
52031;SDS011;38044;45.148;39.604;2022-08-02T00:00:50;22.92;;;15.18;;
52031;SDS011;38044;45.148;39.604;2022-08-02T00:03:16;21.45;;;14.77;;
52031;SDS011;38044;45.148;39.604;2022-08-02T00:05:42;22.98;;;14.88;;
52031;SDS011;38044;45.148;39.604;2022-08-02T00:08:08;23.60;;;15.30;;
52031;SDS011;38044;45.148;39.604;2022-08-02T00:10:34;24.48;;;15.48;;
52031;SDS011;38044;45.148;39.604;2022-08-02T00:13:00;40.42;;;21.85;;
52031;SDS011;38044;45.148;39.604;2022-08-02T00:15:26;46.03;;;24.50;;
52031;SDS011;38044;45.148;39.604;2022-08-02T00:17:52;21.02;;;14.88;;
52031;SDS011;38044;45.148;39.604;2022-08-02T00:20:18;20.33;;;13.43;;
52031;SDS011;38044;45.148;39.604;2022-08-02T00:22:44;16.35;;;12.48;;
52031;SDS011;38044;45.148;39.604;2022-08-02T00:25:10;15.85;;;11.82;;
52031;SDS011;38044;45.148;39.604;2022-08-02T00:27:36;15.95;;;12.05;;
52031;SDS011;38044;45.148;39.604;2022-08-02T00:30:02;15.48;;;11.80;;
52031;SDS011;38044;45.148;39.604;2022-08-02T00:32:28;14.48;;;11.80;;
52031;SDS011;38044;45.148;39.604;2022-08-02T00:34:54;17.00;;;12.20;;
52031;SDS011;38044;45.148;39.604;2022-08-02T00:37:20;14.55;;;11.75;;
52031;SDS011;38044;45.148;39.604;2022-08-02T00:39:46;15.80;;;11.70;;
52031;SDS011;38044;45.148;39.604;2022-08-02T00:42:14;14.93;;;11.95;;
52031;SDS011;38044;45.148;39.604;2022-08-02T00:44:41;15.25;;;12.05;;
52031;SDS011;38044;45.148;39.604;2022-08-02T00:47:07;15.95;;;12.32;;
52031;SDS011;38044;45.148;39.604;2022-08-02T00:49:33;15.43;;;12.35;;
52031;SDS011;38044;45.148;39.604;2022-08-02T00:51:59;13.73;;;12.18;;
52031;SDS011;38044;45.148;39.604;2022-08-02T00:54:25;17.05;;;13.02;;
52031;SDS011;38044;45.148;39.604;2022-08-02T00:56:51;16.48;;;12.77;;
52031;SDS011;38044;45.148;39.604;2022-08-02T00:59:17;15.45;;;12.93;;
52031;SDS011;38044;45.148;39.604;2022-08-02T01:01:43;20.00;;;14.45;;
52031;SDS011;38044;45.148;39.604;2022-08-02T01:04:10;16.00;;;13.93;;
52031;SDS011;38044;45.148;39.604;2022-08-02T01:06:38;17.63;;;14.43;;
52031;SDS011;38044;45.148;39.604;2022-08-02T01:09:06;18.65;;;14.77;;
52031;SDS011;38044;45.148;39.604;2022-08-02T01:11:33;17.75;;;14.15;;
52031;SDS011;38044;45.148;39.604;2022-08-02T01:14:02;21.23;;;15.90;;
52031;SDS011;38044;45.148;39.604;2022-08-02T01:16:32;20.77;;;15.70;;
52031;SDS011;38044;45.148;39.604;2022-08-02T01:19:14;19.83;;;15.83;;
52031;SDS011;38044;45.148;39.604;2022-08-02T01:22:12;19.42;;;14.65;;
52031;SDS011;38044;45.148;39.604;2022-08-02T01:30:18;18.42;;;14.77;;
52031;SDS011;38044;45.148;39.604;2022-08-02T01:32:47;19.48;;;14.50;;
52031;SDS011;38044;45.148;39.604;2022-08-02T01:35:21;24.85;;;15.45;;
52031;SDS011;38044;45.148;39.604;2022-08-02T01:38:03;17.60;;;14.17;;
52031;SDS011;38044;45.148;39.604;2022-08-02T01:40:36;18.95;;;14.15;;
52031;SDS011;38044;45.148;39.604;2022-08-02T01:43:03;17.67;;;14.32;;
52031;SDS011;38044;45.148;39.604;2022-08-02T01:45:32;17.90;;;14.48;;
52031;SDS011;38044;45.148;39.604;2022-08-02T01:47:59;17.02;;;14.43;;
52031;SDS011;38044;45.148;39.604;2022-08-02T01:50:28;17.42;;;13.75;;
52031;SDS011;38044;45.148;39.604;2022-08-02T01:52:58;18.15;;;14.48;;
52031;SDS011;38044;45.148;39.604;2022-08-02T01:55:28;16.70;;;14.85;;
52031;SDS011;38044;45.148;39.604;2022-08-02T01:58:00;17.38;;;13.88;;
52031;SDS011;38044;45.148;39.604;2022-08-02T02:00:30;16.92;;;13.63;;
52031;SDS011;38044;45.148;39.604;2022-08-02T02:02:59;16.55;;;14.50;;
52031;SDS011;38044;45.148;39.604;2022-08-02T02:05:29;17.40;;;15.55;;
52031;SDS011;38044;45.148;39.604;2022-08-02T02:07:57;18.25;;;15.10;;
52031;SDS011;38044;45.148;39.604;2022-08-02T02:10:28;17.80;;;14.88;;
52031;SDS011;38044;45.148;39.604;2022-08-02T02:15:29;17.08;;;13.52;;
52031;SDS011;38044;45.148;39.604;2022-08-02T02:17:57;19.73;;;14.93;;
52031;SDS011;38044;45.148;39.604;2022-08-02T02:20:24;18.95;;;15.10;;
52031;SDS011;38044;45.148;39.604;2022-08-02T02:22:51;18.88;;;14.73;;
52031;SDS011;38044;45.148;39.604;2022-08-02T02:25:21;16.48;;;14.80;;
52031;SDS011;38044;45.148;39.604;2022-08-02T02:30:25;17.60;;;14.93;;
52031;SDS011;38044;45.148;39.604;2022-08-02T02:32:54;17.27;;;15.43;;
52031;SDS011;38044;45.148;39.604;2022-08-02T02:35:22;18.38;;;15.15;;
52031;SDS011;38044;45.148;39.604;2022-08-02T02:37:51;18.33;;;14.88;;
52031;SDS011;38044;45.148;39.604;2022-08-02T02:40:19;19.65;;;15.10;;
52031;SDS011;38044;45.148;39.604;2022-08-02T02:42:47;19.77;;;15.52;;
52031;SDS011;38044;45.148;39.604;2022-08-02T02:45:15;71.55;;;16.17;;
52031;SDS011;38044;45.148;39.604;2022-08-02T02:47:43;17.98;;;13.95;;
52031;SDS011;38044;45.148;39.604;2022-08-02T02:50:14;15.27;;;13.75;;
52031;SDS011;38044;45.148;39.604;2022-08-02T02:52:41;20.63;;;14.85;;
52031;SDS011;38044;45.148;39.604;2022-08-02T02:55:08;17.42;;;13.43;;
52031;SDS011;38044;45.148;39.604;2022-08-02T02:57:36;16.15;;;13.20;;
52031;SDS011;38044;45.148;39.604;2022-08-02T03:00:04;18.50;;;13.68;;
52031;SDS011;38044;45.148;39.604;2022-08-02T03:02:34;15.70;;;13.52;;
52031;SDS011;38044;45.148;39.604;2022-08-02T03:05:03;16.48;;;14.52;;
52031;SDS011;38044;45.148;39.604;2022-08-02T03:07:31;18.38;;;14.65;;
52031;SDS011;38044;45.148;39.604;2022-08-02T03:09:58;16.88;;;15.00;;
52031;SDS011;38044;45.148;39.604;2022-08-02T03:12:24;23.92;;;16.38;;
52031;SDS011;38044;45.148;39.604;2022-08-02T03:14:51;18.00;;;15.10;;
52031;SDS011;38044;45.148;39.604;2022-08-02T03:17:18;19.67;;;15.82;;
52031;SDS011;38044;45.148;39.604;2022-08-02T03:19:44;18.17;;;16.27;;
52031;SDS011;38044;45.148;39.604;2022-08-02T03:22:10;18.58;;;16.10;;
52031;SDS011;38044;45.148;39.604;2022-08-02T03:24:36;18.55;;;16.65;;
52031;SDS011;38044;45.148;39.604;2022-08-02T03:27:02;22.83;;;16.88;;
52031;SDS011;38044;45.148;39.604;2022-08-02T03:29:28;18.52;;;16.52;;
52031;SDS011;38044;45.148;39.604;2022-08-02T03:31:54;20.90;;;17.73;;
52031;SDS011;38044;45.148;39.604;2022-08-02T03:34:23;21.90;;;16.25;;
52031;SDS011;38044;45.148;39.604;2022-08-02T03:36:57;16.52;;;14.20;;
52031;SDS011;38044;45.148;39.604;2022-08-02T03:39:24;19.17;;;12.68;;
52031;SDS011;38044;45.148;39.604;2022-08-02T03:41:51;11.90;;;9.98;;
52031;SDS011;38044;45.148;39.604;2022-08-02T03:44:18;10.10;;;9.10;;
52031;SDS011;38044;45.148;39.604;2022-08-02T03:46:45;10.98;;;9.88;;
52031;SDS011;38044;45.148;39.604;2022-08-02T03:49:11;13.15;;;10.13;;
52031;SDS011;38044;45.148;39.604;2022-08-02T03:51:42;10.52;;;8.80;;
52031;SDS011;38044;45.148;39.604;2022-08-02T03:54:09;16.38;;;10.20;;
52031;SDS011;38044;45.148;39.604;2022-08-02T03:56:36;13.50;;;9.68;;
52031;SDS011;38044;45.148;39.604;2022-08-02T03:59:04;9.43;;;8.48;;
52031;SDS011;38044;45.148;39.604;2022-08-02T04:01:31;9.32;;;7.82;;
52031;SDS011;38044;45.148;39.604;2022-08-02T04:03:57;7.85;;;6.82;;
52031;SDS011;38044;45.148;39.604;2022-08-02T04:06:23;10.00;;;7.72;;
52031;SDS011;38044;45.148;39.604;2022-08-02T04:08:49;7.70;;;7.00;;
52031;SDS011;38044;45.148;39.604;2022-08-02T04:11:17;8.40;;;7.35;;
52031;SDS011;38044;45.148;39.604;2022-08-02T04:13:55;9.90;;;7.85;;
52031;SDS011;38044;45.148;39.604;2022-08-02T04:16:45;9.13;;;7.45;;
52031;SDS011;38044;45.148;39.604;2022-08-02T04:19:26;9.77;;;7.30;;
52031;SDS011;38044;45.148;39.604;2022-08-02T04:21:53;11.05;;;7.82;;
52031;SDS011;38044;45.148;39.604;2022-08-02T04:24:24;8.60;;;7.18;;
52031;SDS011;38044;45.148;39.604;2022-08-02T04:26:54;11.02;;;7.78;;
52031;SDS011;38044;45.148;39.604;2022-08-02T04:29:21;9.13;;;7.75;;
52031;SDS011;38044;45.148;39.604;2022-08-02T04:31:49;10.13;;;7.60;;
52031;SDS011;38044;45.148;39.604;2022-08-02T04:34:16;12.00;;;7.85;;
52031;SDS011;38044;45.148;39.604;2022-08-02T04:36:41;9.00;;;8.10;;
52031;SDS011;38044;45.148;39.604;2022-08-02T04:39:07;11.32;;;8.25;;
52031;SDS011;38044;45.148;39.604;2022-08-02T04:41:37;12.98;;;9.27;;
52031;SDS011;38044;45.148;39.604;2022-08-02T04:44:10;10.57;;;9.48;;
52031;SDS011;38044;45.148;39.604;2022-08-02T04:46:37;11.82;;;8.13;;
52031;SDS011;38044;45.148;39.604;2022-08-02T04:49:04;8.30;;;7.32;;
52031;SDS011;38044;45.148;39.604;2022-08-02T04:51:37;8.18;;;6.90;;
52031;SDS011;38044;45.148;39.604;2022-08-02T04:54:05;8.45;;;6.70;;
52031;SDS011;38044;45.148;39.604;2022-08-02T04:56:33;8.95;;;6.45;;
52031;SDS011;38044;45.148;39.604;2022-08-02T04:58:59;7.93;;;7.10;;
52031;SDS011;38044;45.148;39.604;2022-08-02T05:01:25;8.02;;;6.70;;
52031;SDS011;38044;45.148;39.604;2022-08-02T05:03:51;8.43;;;6.82;;
52031;SDS011;38044;45.148;39.604;2022-08-02T05:06:18;8.10;;;6.72;;
52031;SDS011;38044;45.148;39.604;2022-08-02T05:08:45;7.72;;;6.20;;
52031;SDS011;38044;45.148;39.604;2022-08-02T05:11:12;7.88;;;5.97;;
52031;SDS011;38044;45.148;39.604;2022-08-02T05:13:39;6.72;;;5.63;;
52031;SDS011;38044;45.148;39.604;2022-08-02T05:16:05;8.45;;;5.72;;
52031;SDS011;38044;45.148;39.604;2022-08-02T05:18:31;7.93;;;5.70;;
52031;SDS011;38044;45.148;39.604;2022-08-02T05:20:57;7.50;;;6.13;;
52031;SDS011;38044;45.148;39.604;2022-08-02T05:23:23;6.82;;;5.88;;
52031;SDS011;38044;45.148;39.604;2022-08-02T05:25:49;5.53;;;5.03;;
52031;SDS011;38044;45.148;39.604;2022-08-02T05:28:15;6.88;;;4.80;;
52031;SDS011;38044;45.148;39.604;2022-08-02T05:30:41;4.75;;;4.25;;
52031;SDS011;38044;45.148;39.604;2022-08-02T05:33:06;4.60;;;4.13;;
52031;SDS011;38044;45.148;39.604;2022-08-02T05:35:32;6.90;;;4.57;;
52031;SDS011;38044;45.148;39.604;2022-08-02T05:37:59;4.95;;;4.03;;
52031;SDS011;38044;45.148;39.604;2022-08-02T05:40:25;8.07;;;4.63;;
52031;SDS011;38044;45.148;39.604;2022-08-02T05:42:51;6.22;;;4.38;;
52031;SDS011;38044;45.148;39.604;2022-08-02T05:45:17;5.82;;;4.47;;
52031;SDS011;38044;45.148;39.604;2022-08-02T05:47:43;7.22;;;5.05;;
52031;SDS011;38044;45.148;39.604;2022-08-02T05:50:09;5.93;;;4.50;;
52031;SDS011;38044;45.148;39.604;2022-08-02T05:57:57;6.78;;;4.28;;
52031;SDS011;38044;45.148;39.604;2022-08-02T06:00:44;6.25;;;4.43;;
52031;SDS011;38044;45.148;39.604;2022-08-02T06:03:20;7.18;;;4.15;;
52031;SDS011;38044;45.148;39.604;2022-08-02T06:05:52;6.03;;;4.47;;
52031;SDS011;38044;45.148;39.604;2022-08-02T06:08:26;5.03;;;4.28;;
52031;SDS011;38044;45.148;39.604;2022-08-02T06:10:59;5.40;;;4.22;;
52031;SDS011;38044;45.148;39.604;2022-08-02T06:13:27;3.90;;;3.53;;
52031;SDS011;38044;45.148;39.604;2022-08-02T06:15:53;5.88;;;4.30;;
52031;SDS011;38044;45.148;39.604;2022-08-02T06:18:25;7.63;;;4.35;;
52031;SDS011;38044;45.148;39.604;2022-08-02T06:20:52;7.95;;;4.70;;
52031;SDS011;38044;45.148;39.604;2022-08-02T06:23:22;6.57;;;4.63;;
52031;SDS011;38044;45.148;39.604;2022-08-02T06:25:50;4.07;;;3.40;;
52031;SDS011;38044;45.148;39.604;2022-08-02T06:28:18;6.28;;;4.60;;
52031;SDS011;38044;45.148;39.604;2022-08-02T06:30:44;6.05;;;4.47;;
52031;SDS011;38044;45.148;39.604;2022-08-02T06:33:11;5.63;;;3.47;;
52031;SDS011;38044;45.148;39.604;2022-08-02T06:35:44;4.88;;;4.30;;
52031;SDS011;38044;45.148;39.604;2022-08-02T06:38:26;6.30;;;3.53;;
52031;SDS011;38044;45.148;39.604;2022-08-02T06:41:00;3.60;;;3.30;;
52031;SDS011;38044;45.148;39.604;2022-08-02T06:43:49;4.95;;;3.17;;
52031;SDS011;38044;45.148;39.604;2022-08-02T06:46:19;3.95;;;3.40;;
52031;SDS011;38044;45.148;39.604;2022-08-02T06:48:46;6.30;;;3.50;;
52031;SDS011;38044;45.148;39.604;2022-08-02T06:51:12;3.83;;;3.40;;
52031;SDS011;38044;45.148;39.604;2022-08-02T06:53:39;5.45;;;3.35;;
52031;SDS011;38044;45.148;39.604;2022-08-02T06:56:05;4.03;;;3.35;;
52031;SDS011;38044;45.148;39.604;2022-08-02T06:58:30;4.07;;;3.13;;
52031;SDS011;38044;45.148;39.604;2022-08-02T07:00:56;3.67;;;3.15;;
52031;SDS011;38044;45.148;39.604;2022-08-02T07:03:22;3.05;;;2.80;;
52031;SDS011;38044;45.148;39.604;2022-08-02T07:05:52;4.30;;;2.75;;
52031;SDS011;38044;45.148;39.604;2022-08-02T07:08:18;5.35;;;3.70;;
52031;SDS011;38044;45.148;39.604;2022-08-02T07:10:45;4.47;;;3.03;;
52031;SDS011;38044;45.148;39.604;2022-08-02T07:13:11;4.20;;;3.20;;
52031;SDS011;38044;45.148;39.604;2022-08-02T07:15:37;3.78;;;3.22;;
52031;SDS011;38044;45.148;39.604;2022-08-02T07:18:04;3.60;;;3.05;;
52031;SDS011;38044;45.148;39.604;2022-08-02T07:20:30;4.50;;;3.30;;
52031;SDS011;38044;45.148;39.604;2022-08-02T07:22:56;3.47;;;2.80;;
52031;SDS011;38044;45.148;39.604;2022-08-02T07:25:22;4.00;;;3.08;;
52031;SDS011;38044;45.148;39.604;2022-08-02T07:27:48;5.95;;;3.53;;
52031;SDS011;38044;45.148;39.604;2022-08-02T07:30:14;3.20;;;2.90;;
52031;SDS011;38044;45.148;39.604;2022-08-02T07:32:40;3.55;;;2.97;;
52031;SDS011;38044;45.148;39.604;2022-08-02T07:35:06;3.08;;;2.67;;
52031;SDS011;38044;45.148;39.604;2022-08-02T07:37:33;2.92;;;2.67;;
52031;SDS011;38044;45.148;39.604;2022-08-02T07:40:03;5.22;;;2.72;;
52031;SDS011;38044;45.148;39.604;2022-08-02T07:42:30;3.53;;;2.30;;
52031;SDS011;38044;45.148;39.604;2022-08-02T07:44:56;3.85;;;2.75;;
52031;SDS011;38044;45.148;39.604;2022-08-02T07:47:22;3.03;;;2.72;;
52031;SDS011;38044;45.148;39.604;2022-08-02T07:49:48;3.70;;;2.60;;
52031;SDS011;38044;45.148;39.604;2022-08-02T07:52:14;3.65;;;2.80;;
52031;SDS011;38044;45.148;39.604;2022-08-02T07:54:40;2.83;;;2.50;;
52031;SDS011;38044;45.148;39.604;2022-08-02T07:57:06;3.00;;;2.55;;
52031;SDS011;38044;45.148;39.604;2022-08-02T07:59:34;3.65;;;2.67;;
52031;SDS011;38044;45.148;39.604;2022-08-02T08:02:00;6.00;;;3.47;;
52031;SDS011;38044;45.148;39.604;2022-08-02T08:04:26;3.55;;;2.55;;
52031;SDS011;38044;45.148;39.604;2022-08-02T08:06:52;4.97;;;2.80;;
52031;SDS011;38044;45.148;39.604;2022-08-02T08:09:18;3.13;;;2.70;;
52031;SDS011;38044;45.148;39.604;2022-08-02T08:11:44;2.88;;;2.53;;
52031;SDS011;38044;45.148;39.604;2022-08-02T08:14:10;4.25;;;2.50;;
52031;SDS011;38044;45.148;39.604;2022-08-02T08:16:36;2.75;;;2.40;;
52031;SDS011;38044;45.148;39.604;2022-08-02T08:19:02;4.50;;;2.60;;
52031;SDS011;38044;45.148;39.604;2022-08-02T08:21:28;2.50;;;2.30;;
52031;SDS011;38044;45.148;39.604;2022-08-02T08:23:55;6.60;;;2.42;;
52031;SDS011;38044;45.148;39.604;2022-08-02T08:26:21;2.67;;;2.40;;
52031;SDS011;38044;45.148;39.604;2022-08-02T08:28:48;4.22;;;2.50;;
52031;SDS011;38044;45.148;39.604;2022-08-02T08:31:14;3.03;;;2.08;;
52031;SDS011;38044;45.148;39.604;2022-08-02T08:33:40;2.65;;;2.08;;
52031;SDS011;38044;45.148;39.604;2022-08-02T08:36:06;2.90;;;2.45;;
52031;SDS011;38044;45.148;39.604;2022-08-02T08:38:32;3.35;;;2.80;;
52031;SDS011;38044;45.148;39.604;2022-08-02T08:40:58;4.68;;;3.70;;
52031;SDS011;38044;45.148;39.604;2022-08-02T08:43:24;7.78;;;4.05;;
52031;SDS011;38044;45.148;39.604;2022-08-02T08:45:50;2.67;;;2.40;;
52031;SDS011;38044;45.148;39.604;2022-08-02T08:48:16;3.78;;;2.83;;
52031;SDS011;38044;45.148;39.604;2022-08-02T08:53:17;5.78;;;3.30;;
52031;SDS011;38044;45.148;39.604;2022-08-02T08:55:45;6.97;;;3.15;;
52031;SDS011;38044;45.148;39.604;2022-08-02T08:58:12;2.63;;;2.42;;
52031;SDS011;38044;45.148;39.604;2022-08-02T09:00:38;4.20;;;2.60;;
52031;SDS011;38044;45.148;39.604;2022-08-02T09:03:08;2.67;;;2.47;;
52031;SDS011;38044;45.148;39.604;2022-08-02T09:05:38;3.28;;;2.20;;
52031;SDS011;38044;45.148;39.604;2022-08-02T09:08:05;2.60;;;2.17;;
52031;SDS011;38044;45.148;39.604;2022-08-02T09:10:42;2.72;;;2.03;;
52031;SDS011;38044;45.148;39.604;2022-08-02T09:13:16;2.28;;;2.08;;
52031;SDS011;38044;45.148;39.604;2022-08-02T09:16:05;2.00;;;1.85;;
52031;SDS011;38044;45.148;39.604;2022-08-02T09:18:34;5.05;;;1.70;;
52031;SDS011;38044;45.148;39.604;2022-08-02T09:21:05;2.80;;;2.03;;
52031;SDS011;38044;45.148;39.604;2022-08-02T09:23:38;2.20;;;2.00;;
52031;SDS011;38044;45.148;39.604;2022-08-02T09:26:14;2.50;;;1.95;;
52031;SDS011;38044;45.148;39.604;2022-08-02T09:28:45;2.88;;;2.20;;
52031;SDS011;38044;45.148;39.604;2022-08-02T09:31:18;2.85;;;2.00;;
52031;SDS011;38044;45.148;39.604;2022-08-02T09:33:53;2.67;;;2.47;;
52031;SDS011;38044;45.148;39.604;2022-08-02T09:36:21;3.45;;;2.13;;
52031;SDS011;38044;45.148;39.604;2022-08-02T09:38:58;2.92;;;2.50;;
52031;SDS011;38044;45.148;39.604;2022-08-02T09:41:28;2.92;;;2.08;;
52031;SDS011;38044;45.148;39.604;2022-08-02T09:43:58;4.75;;;2.50;;
52031;SDS011;38044;45.148;39.604;2022-08-02T09:46:30;7.82;;;2.28;;
52031;SDS011;38044;45.148;39.604;2022-08-02T09:48:58;2.80;;;2.20;;
52031;SDS011;38044;45.148;39.604;2022-08-02T09:51:29;5.05;;;2.55;;
52031;SDS011;38044;45.148;39.604;2022-08-02T09:53:59;2.92;;;2.50;;
52031;SDS011;38044;45.148;39.604;2022-08-02T09:56:27;4.55;;;2.55;;
52031;SDS011;38044;45.148;39.604;2022-08-02T09:59:07;4.50;;;2.65;;
52031;SDS011;38044;45.148;39.604;2022-08-02T10:01:33;2.83;;;2.63;;
52031;SDS011;38044;45.148;39.604;2022-08-02T10:04:04;3.17;;;2.65;;
52031;SDS011;38044;45.148;39.604;2022-08-02T10:06:35;5.28;;;3.50;;
52031;SDS011;38044;45.148;39.604;2022-08-02T10:09:02;4.18;;;3.53;;
52031;SDS011;38044;45.148;39.604;2022-08-02T10:11:29;3.50;;;3.20;;
52031;SDS011;38044;45.148;39.604;2022-08-02T10:13:56;4.38;;;3.33;;
52031;SDS011;38044;45.148;39.604;2022-08-02T10:16:22;7.00;;;3.20;;
52031;SDS011;38044;45.148;39.604;2022-08-02T10:18:51;5.40;;;3.35;;
52031;SDS011;38044;45.148;39.604;2022-08-02T10:22:03;4.57;;;3.17;;
52031;SDS011;38044;45.148;39.604;2022-08-02T10:24:21;4.10;;;3.20;;
52031;SDS011;38044;45.148;39.604;2022-08-02T10:26:49;6.45;;;3.22;;
52031;SDS011;38044;45.148;39.604;2022-08-02T10:29:18;5.07;;;3.22;;
52031;SDS011;38044;45.148;39.604;2022-08-02T10:31:56;3.65;;;3.15;;
52031;SDS011;38044;45.148;39.604;2022-08-02T10:34:29;4.22;;;3.13;;
52031;SDS011;38044;45.148;39.604;2022-08-02T10:37:30;14.52;;;3.70;;
52031;SDS011;38044;45.148;39.604;2022-08-02T10:40:00;5.22;;;3.60;;
52031;SDS011;38044;45.148;39.604;2022-08-02T10:42:45;6.57;;;3.70;;
52031;SDS011;38044;45.148;39.604;2022-08-02T10:45:14;3.78;;;3.35;;
52031;SDS011;38044;45.148;39.604;2022-08-02T10:47:55;3.85;;;3.50;;
52031;SDS011;38044;45.148;39.604;2022-08-02T10:55:49;4.22;;;3.30;;
52031;SDS011;38044;45.148;39.604;2022-08-02T10:58:16;7.03;;;3.35;;
52031;SDS011;38044;45.148;39.604;2022-08-02T11:00:43;7.18;;;3.80;;
52031;SDS011;38044;45.148;39.604;2022-08-02T11:06:00;4.50;;;3.90;;
52031;SDS011;38044;45.148;39.604;2022-08-02T11:08:31;6.68;;;3.92;;
52031;SDS011;38044;45.148;39.604;2022-08-02T11:10:57;5.05;;;4.20;;
52031;SDS011;38044;45.148;39.604;2022-08-02T11:13:25;6.35;;;4.38;;
52031;SDS011;38044;45.148;39.604;2022-08-02T11:15:57;29.73;;;5.80;;
52031;SDS011;38044;45.148;39.604;2022-08-02T11:21:23;4.60;;;3.75;;
52031;SDS011;38044;45.148;39.604;2022-08-02T11:23:50;3.65;;;3.00;;
52031;SDS011;38044;45.148;39.604;2022-08-02T11:28:58;4.80;;;4.03;;
52031;SDS011;38044;45.148;39.604;2022-08-02T11:31:25;4.65;;;3.92;;
52031;SDS011;38044;45.148;39.604;2022-08-02T11:33:51;4.15;;;3.60;;
52031;SDS011;38044;45.148;39.604;2022-08-02T11:36:18;4.25;;;3.08;;
52031;SDS011;38044;45.148;39.604;2022-08-02T11:38:44;3.78;;;2.92;;
52031;SDS011;38044;45.148;39.604;2022-08-02T11:41:20;5.93;;;3.90;;
52031;SDS011;38044;45.148;39.604;2022-08-02T11:43:52;4.05;;;3.50;;
52031;SDS011;38044;45.148;39.604;2022-08-02T11:46:19;3.05;;;2.80;;
52031;SDS011;38044;45.148;39.604;2022-08-02T11:48:45;4.32;;;3.17;;
52031;SDS011;38044;45.148;39.604;2022-08-02T12:03:37;3.80;;;3.50;;
52031;SDS011;38044;45.148;39.604;2022-08-02T12:06:04;4.70;;;3.58;;
52031;SDS011;38044;45.148;39.604;2022-08-02T12:08:35;7.32;;;3.13;;
52031;SDS011;38044;45.148;39.604;2022-08-02T12:11:02;6.25;;;3.50;;
52031;SDS011;38044;45.148;39.604;2022-08-02T12:13:40;7.60;;;4.03;;
52031;SDS011;38044;45.148;39.604;2022-08-02T12:16:10;5.07;;;3.33;;
52031;SDS011;38044;45.148;39.604;2022-08-02T12:18:55;3.70;;;3.40;;
52031;SDS011;38044;45.148;39.604;2022-08-02T12:21:41;3.63;;;3.33;;
52031;SDS011;38044;45.148;39.604;2022-08-02T12:24:08;3.75;;;3.35;;
52031;SDS011;38044;45.148;39.604;2022-08-02T12:26:45;4.32;;;3.00;;
52031;SDS011;38044;45.148;39.604;2022-08-02T12:29:12;7.85;;;3.80;;
52031;SDS011;38044;45.148;39.604;2022-08-02T12:31:47;4.68;;;3.75;;
52031;SDS011;38044;45.148;39.604;2022-08-02T12:34:14;7.47;;;3.65;;
52031;SDS011;38044;45.148;39.604;2022-08-02T12:37:01;4.85;;;3.67;;
52031;SDS011;38044;45.148;39.604;2022-08-02T12:39:42;4.53;;;3.58;;
52031;SDS011;38044;45.148;39.604;2022-08-02T12:42:10;3.45;;;3.15;;
52031;SDS011;38044;45.148;39.604;2022-08-02T12:44:48;3.75;;;3.42;;
52031;SDS011;38044;45.148;39.604;2022-08-02T12:47:19;3.72;;;2.80;;
52031;SDS011;38044;45.148;39.604;2022-08-02T12:49:46;9.48;;;4.88;;
52031;SDS011;38044;45.148;39.604;2022-08-02T12:52:32;6.72;;;3.63;;
52031;SDS011;38044;45.148;39.604;2022-08-02T12:54:57;4.20;;;3.10;;
52031;SDS011;38044;45.148;39.604;2022-08-02T12:57:23;7.32;;;3.13;;
52031;SDS011;38044;45.148;39.604;2022-08-02T12:59:50;11.27;;;4.53;;
52031;SDS011;38044;45.148;39.604;2022-08-02T13:02:18;8.07;;;3.97;;
52031;SDS011;38044;45.148;39.604;2022-08-02T13:04:44;8.13;;;5.00;;
52031;SDS011;38044;45.148;39.604;2022-08-02T13:07:10;8.20;;;4.82;;
52031;SDS011;38044;45.148;39.604;2022-08-02T13:09:37;6.68;;;4.50;;
52031;SDS011;38044;45.148;39.604;2022-08-02T13:12:05;7.22;;;4.55;;
52031;SDS011;38044;45.148;39.604;2022-08-02T13:14:33;8.45;;;4.10;;
52031;SDS011;38044;45.148;39.604;2022-08-02T13:17:00;8.75;;;4.78;;
52031;SDS011;38044;45.148;39.604;2022-08-02T13:19:26;10.48;;;4.80;;
52031;SDS011;38044;45.148;39.604;2022-08-02T13:21:52;5.28;;;4.00;;
52031;SDS011;38044;45.148;39.604;2022-08-02T13:24:18;14.07;;;5.68;;
52031;SDS011;38044;45.148;39.604;2022-08-02T13:26:45;4.03;;;3.53;;
52031;SDS011;38044;45.148;39.604;2022-08-02T13:29:11;3.42;;;3.20;;
52031;SDS011;38044;45.148;39.604;2022-08-02T13:31:37;4.90;;;3.78;;
52031;SDS011;38044;45.148;39.604;2022-08-02T13:34:06;4.65;;;3.90;;
52031;SDS011;38044;45.148;39.604;2022-08-02T13:36:33;6.30;;;4.18;;
52031;SDS011;38044;45.148;39.604;2022-08-02T13:39:00;4.88;;;3.53;;
52031;SDS011;38044;45.148;39.604;2022-08-02T13:41:29;12.25;;;4.80;;
52031;SDS011;38044;45.148;39.604;2022-08-02T13:43:58;6.88;;;4.70;;
52031;SDS011;38044;45.148;39.604;2022-08-02T13:46:25;5.55;;;4.60;;
52031;SDS011;38044;45.148;39.604;2022-08-02T13:48:51;4.35;;;3.95;;
52031;SDS011;38044;45.148;39.604;2022-08-02T13:51:17;11.05;;;4.57;;
52031;SDS011;38044;45.148;39.604;2022-08-02T13:53:42;8.98;;;4.50;;
52031;SDS011;38044;45.148;39.604;2022-08-02T13:56:08;6.68;;;3.40;;
52031;SDS011;38044;45.148;39.604;2022-08-02T13:58:34;2.80;;;2.20;;
52031;SDS011;38044;45.148;39.604;2022-08-02T14:01:00;7.72;;;2.65;;
52031;SDS011;38044;45.148;39.604;2022-08-02T14:03:26;2.85;;;2.30;;
52031;SDS011;38044;45.148;39.604;2022-08-02T14:05:52;3.80;;;2.55;;
52031;SDS011;38044;45.148;39.604;2022-08-02T14:08:18;4.35;;;2.50;;
52031;SDS011;38044;45.148;39.604;2022-08-02T14:10:47;4.60;;;3.00;;
52031;SDS011;38044;45.148;39.604;2022-08-02T14:13:14;2.70;;;2.50;;
52031;SDS011;38044;45.148;39.604;2022-08-02T14:15:42;4.47;;;2.70;;
52031;SDS011;38044;45.148;39.604;2022-08-02T14:18:10;4.03;;;2.58;;
52031;SDS011;38044;45.148;39.604;2022-08-02T14:20:36;3.03;;;2.58;;
52031;SDS011;38044;45.148;39.604;2022-08-02T14:23:04;3.35;;;2.58;;
52031;SDS011;38044;45.148;39.604;2022-08-02T14:25:30;6.70;;;2.60;;
52031;SDS011;38044;45.148;39.604;2022-08-02T14:27:58;2.83;;;2.60;;
52031;SDS011;38044;45.148;39.604;2022-08-02T14:30:24;3.33;;;2.63;;
52031;SDS011;38044;45.148;39.604;2022-08-02T14:32:50;6.85;;;3.28;;
52031;SDS011;38044;45.148;39.604;2022-08-02T14:35:17;14.48;;;4.30;;
52031;SDS011;38044;45.148;39.604;2022-08-02T14:37:43;11.55;;;5.65;;
52031;SDS011;38044;45.148;39.604;2022-08-02T14:40:10;7.20;;;5.13;;
52031;SDS011;38044;45.148;39.604;2022-08-02T14:42:38;11.07;;;5.18;;
52031;SDS011;38044;45.148;39.604;2022-08-02T14:45:04;17.08;;;13.73;;
52031;SDS011;38044;45.148;39.604;2022-08-02T14:47:30;18.02;;;11.15;;
52031;SDS011;38044;45.148;39.604;2022-08-02T14:49:56;9.95;;;5.40;;
52031;SDS011;38044;45.148;39.604;2022-08-02T14:52:22;6.55;;;4.00;;
52031;SDS011;38044;45.148;39.604;2022-08-02T14:54:48;7.88;;;4.18;;
52031;SDS011;38044;45.148;39.604;2022-08-02T14:57:14;7.13;;;4.65;;
52031;SDS011;38044;45.148;39.604;2022-08-02T14:59:40;5.45;;;3.45;;
52031;SDS011;38044;45.148;39.604;2022-08-02T15:02:06;5.03;;;4.03;;
52031;SDS011;38044;45.148;39.604;2022-08-02T15:04:32;5.85;;;3.88;;
52031;SDS011;38044;45.148;39.604;2022-08-02T15:06:59;8.00;;;4.40;;
52031;SDS011;38044;45.148;39.604;2022-08-02T15:09:25;6.22;;;3.95;;
52031;SDS011;38044;45.148;39.604;2022-08-02T15:11:51;7.97;;;4.13;;
52031;SDS011;38044;45.148;39.604;2022-08-02T15:14:19;5.07;;;4.03;;
52031;SDS011;38044;45.148;39.604;2022-08-02T15:16:46;10.60;;;6.43;;
52031;SDS011;38044;45.148;39.604;2022-08-02T15:19:12;9.23;;;4.82;;